Terminal Aerodrome Forecast
Issued by NWS

Home | Current Version | Previous Version | Text Only | Print | Product List | Glossary Off
Versions: 1 2 3 4 5 6 7 8 9 10 11 12 13 14 15

000
FTUS42 KMHX 071138
TAFISO
TAF
KISO 071138Z 0712/0812 02011G18KT 6SM -RASN SCT015 OVC040
     FM071530 01017G27KT 6SM -RA SCT010 OVC025
     FM080100 35014G21KT P6SM BKN050
     FM080600 33012KT P6SM FEW090
      AMD LTD TO CLD VIS AND WIND=

USA.gov is the U.S. government's official web portal to all federal, state and local government web resources and services.